sensor_id;sensor_type;location;lat;lon;timestamp;P1;durP1;ratioP1;P2;durP2;ratioP2
25237;SDS011;13185;50.872;5.306;2024-01-15T00:00:16;30.97;;;14.93;;
25237;SDS011;13185;50.872;5.306;2024-01-15T00:02:42;31.80;;;15.77;;
25237;SDS011;13185;50.872;5.306;2024-01-15T00:05:07;28.70;;;13.67;;
25237;SDS011;13185;50.872;5.306;2024-01-15T00:07:33;33.20;;;14.60;;
25237;SDS011;13185;50.872;5.306;2024-01-15T00:09:58;28.10;;;14.50;;
25237;SDS011;13185;50.872;5.306;2024-01-15T00:12:24;31.67;;;14.70;;
25237;SDS011;13185;50.872;5.306;2024-01-15T00:14:49;28.47;;;15.10;;
25237;SDS011;13185;50.872;5.306;2024-01-15T00:17:15;29.30;;;14.90;;
25237;SDS011;13185;50.872;5.306;2024-01-15T00:19:40;30.17;;;14.87;;
25237;SDS011;13185;50.872;5.306;2024-01-15T00:22:06;32.87;;;14.43;;
25237;SDS011;13185;50.872;5.306;2024-01-15T00:24:31;34.77;;;16.93;;
25237;SDS011;13185;50.872;5.306;2024-01-15T00:26:57;28.70;;;14.23;;
25237;SDS011;13185;50.872;5.306;2024-01-15T00:29:22;30.40;;;14.77;;
25237;SDS011;13185;50.872;5.306;2024-01-15T00:31:49;28.93;;;14.10;;
25237;SDS011;13185;50.872;5.306;2024-01-15T00:34:14;27.77;;;13.37;;
25237;SDS011;13185;50.872;5.306;2024-01-15T00:36:40;28.83;;;14.57;;
25237;SDS011;13185;50.872;5.306;2024-01-15T00:39:05;31.50;;;14.30;;
25237;SDS011;13185;50.872;5.306;2024-01-15T00:41:31;29.53;;;14.43;;
25237;SDS011;13185;50.872;5.306;2024-01-15T00:43:56;31.40;;;15.33;;
25237;SDS011;13185;50.872;5.306;2024-01-15T00:46:22;28.50;;;13.93;;
25237;SDS011;13185;50.872;5.306;2024-01-15T00:48:47;28.20;;;13.97;;
25237;SDS011;13185;50.872;5.306;2024-01-15T00:51:13;33.90;;;14.90;;
25237;SDS011;13185;50.872;5.306;2024-01-15T00:53:39;38.23;;;14.97;;
25237;SDS011;13185;50.872;5.306;2024-01-15T00:56:05;30.27;;;13.53;;
25237;SDS011;13185;50.872;5.306;2024-01-15T00:58:30;37.87;;;15.47;;
25237;SDS011;13185;50.872;5.306;2024-01-15T01:00:56;32.10;;;15.17;;
25237;SDS011;13185;50.872;5.306;2024-01-15T01:03:21;35.83;;;15.17;;
25237;SDS011;13185;50.872;5.306;2024-01-15T01:05:50;30.27;;;14.27;;
25237;SDS011;13185;50.872;5.306;2024-01-15T01:08:16;31.40;;;14.93;;
25237;SDS011;13185;50.872;5.306;2024-01-15T01:10:41;32.33;;;15.10;;
25237;SDS011;13185;50.872;5.306;2024-01-15T01:13:10;35.57;;;14.53;;
25237;SDS011;13185;50.872;5.306;2024-01-15T01:15:36;30.30;;;13.03;;
25237;SDS011;13185;50.872;5.306;2024-01-15T01:18:01;33.30;;;14.70;;
25237;SDS011;13185;50.872;5.306;2024-01-15T01:20:27;28.90;;;13.83;;
25237;SDS011;13185;50.872;5.306;2024-01-15T01:22:52;31.80;;;14.13;;
25237;SDS011;13185;50.872;5.306;2024-01-15T01:25:18;30.13;;;14.43;;
25237;SDS011;13185;50.872;5.306;2024-01-15T01:27:44;30.17;;;14.37;;
25237;SDS011;13185;50.872;5.306;2024-01-15T01:30:09;29.43;;;13.87;;
25237;SDS011;13185;50.872;5.306;2024-01-15T01:32:35;29.57;;;13.87;;
25237;SDS011;13185;50.872;5.306;2024-01-15T01:35:00;25.57;;;14.07;;
25237;SDS011;13185;50.872;5.306;2024-01-15T01:37:26;28.43;;;13.40;;
25237;SDS011;13185;50.872;5.306;2024-01-15T01:39:51;30.57;;;14.50;;
25237;SDS011;13185;50.872;5.306;2024-01-15T01:42:17;31.07;;;12.70;;
25237;SDS011;13185;50.872;5.306;2024-01-15T01:44:43;23.77;;;12.07;;
25237;SDS011;13185;50.872;5.306;2024-01-15T01:47:08;27.30;;;13.93;;
25237;SDS011;13185;50.872;5.306;2024-01-15T01:49:34;24.47;;;12.40;;
25237;SDS011;13185;50.872;5.306;2024-01-15T01:52:01;25.73;;;12.33;;
25237;SDS011;13185;50.872;5.306;2024-01-15T01:54:29;29.37;;;12.63;;
25237;SDS011;13185;50.872;5.306;2024-01-15T01:56:56;29.93;;;13.60;;
25237;SDS011;13185;50.872;5.306;2024-01-15T01:59:23;23.60;;;11.57;;
25237;SDS011;13185;50.872;5.306;2024-01-15T02:01:51;30.50;;;12.57;;
25237;SDS011;13185;50.872;5.306;2024-01-15T02:04:17;22.60;;;11.80;;
25237;SDS011;13185;50.872;5.306;2024-01-15T02:06:44;22.73;;;11.50;;
25237;SDS011;13185;50.872;5.306;2024-01-15T02:09:09;27.47;;;12.60;;
25237;SDS011;13185;50.872;5.306;2024-01-15T02:11:36;23.77;;;11.10;;
25237;SDS011;13185;50.872;5.306;2024-01-15T02:14:02;21.13;;;11.17;;
25237;SDS011;13185;50.872;5.306;2024-01-15T02:16:28;24.07;;;11.27;;
25237;SDS011;13185;50.872;5.306;2024-01-15T02:18:53;19.97;;;10.20;;
25237;SDS011;13185;50.872;5.306;2024-01-15T02:21:19;21.73;;;10.53;;
25237;SDS011;13185;50.872;5.306;2024-01-15T02:23:44;21.00;;;10.37;;
25237;SDS011;13185;50.872;5.306;2024-01-15T02:26:10;26.43;;;10.97;;
25237;SDS011;13185;50.872;5.306;2024-01-15T02:28:36;20.67;;;10.83;;
25237;SDS011;13185;50.872;5.306;2024-01-15T02:31:01;18.93;;;10.10;;
25237;SDS011;13185;50.872;5.306;2024-01-15T02:33:27;23.10;;;10.67;;
25237;SDS011;13185;50.872;5.306;2024-01-15T02:35:52;22.20;;;11.00;;
25237;SDS011;13185;50.872;5.306;2024-01-15T02:38:18;25.77;;;11.23;;
25237;SDS011;13185;50.872;5.306;2024-01-15T02:40:44;21.50;;;10.37;;
25237;SDS011;13185;50.872;5.306;2024-01-15T02:43:10;20.63;;;9.53;;
25237;SDS011;13185;50.872;5.306;2024-01-15T02:45:36;21.37;;;9.67;;
25237;SDS011;13185;50.872;5.306;2024-01-15T02:48:01;16.10;;;8.90;;
25237;SDS011;13185;50.872;5.306;2024-01-15T02:50:27;16.47;;;9.50;;
25237;SDS011;13185;50.872;5.306;2024-01-15T02:52:52;20.13;;;9.17;;
25237;SDS011;13185;50.872;5.306;2024-01-15T02:55:18;17.43;;;9.03;;
25237;SDS011;13185;50.872;5.306;2024-01-15T02:57:43;18.63;;;9.73;;
25237;SDS011;13185;50.872;5.306;2024-01-15T03:00:09;18.90;;;9.30;;
25237;SDS011;13185;50.872;5.306;2024-01-15T03:02:38;18.47;;;9.80;;
25237;SDS011;13185;50.872;5.306;2024-01-15T03:05:05;15.33;;;8.00;;
25237;SDS011;13185;50.872;5.306;2024-01-15T03:07:34;19.17;;;9.90;;
25237;SDS011;13185;50.872;5.306;2024-01-15T03:09:59;18.03;;;8.37;;
25237;SDS011;13185;50.872;5.306;2024-01-15T03:12:25;15.80;;;8.73;;
25237;SDS011;13185;50.872;5.306;2024-01-15T03:14:50;23.00;;;9.50;;
25237;SDS011;13185;50.872;5.306;2024-01-15T03:17:16;17.03;;;8.40;;
25237;SDS011;13185;50.872;5.306;2024-01-15T03:19:41;15.83;;;9.60;;
25237;SDS011;13185;50.872;5.306;2024-01-15T03:22:07;19.40;;;8.97;;
25237;SDS011;13185;50.872;5.306;2024-01-15T03:24:34;16.90;;;8.23;;
25237;SDS011;13185;50.872;5.306;2024-01-15T03:27:00;18.73;;;8.33;;
25237;SDS011;13185;50.872;5.306;2024-01-15T03:29:25;13.20;;;8.13;;
25237;SDS011;13185;50.872;5.306;2024-01-15T03:31:51;12.87;;;7.17;;
25237;SDS011;13185;50.872;5.306;2024-01-15T03:34:17;15.83;;;8.17;;
25237;SDS011;13185;50.872;5.306;2024-01-15T03:36:43;15.27;;;7.33;;
25237;SDS011;13185;50.872;5.306;2024-01-15T03:39:08;16.93;;;8.97;;
25237;SDS011;13185;50.872;5.306;2024-01-15T03:41:34;16.50;;;8.03;;
25237;SDS011;13185;50.872;5.306;2024-01-15T03:43:59;16.63;;;8.27;;
25237;SDS011;13185;50.872;5.306;2024-01-15T03:46:25;16.67;;;7.40;;
25237;SDS011;13185;50.872;5.306;2024-01-15T03:48:51;13.77;;;6.97;;
25237;SDS011;13185;50.872;5.306;2024-01-15T03:51:19;16.87;;;7.77;;
25237;SDS011;13185;50.872;5.306;2024-01-15T03:53:45;14.17;;;7.50;;
25237;SDS011;13185;50.872;5.306;2024-01-15T03:56:11;15.67;;;7.97;;
25237;SDS011;13185;50.872;5.306;2024-01-15T03:58:37;12.10;;;6.87;;
25237;SDS011;13185;50.872;5.306;2024-01-15T04:01:02;12.87;;;6.53;;
25237;SDS011;13185;50.872;5.306;2024-01-15T04:03:28;11.80;;;6.73;;
25237;SDS011;13185;50.872;5.306;2024-01-15T04:05:54;12.53;;;6.90;;
25237;SDS011;13185;50.872;5.306;2024-01-15T04:08:19;14.80;;;7.23;;
25237;SDS011;13185;50.872;5.306;2024-01-15T04:10:45;15.50;;;6.90;;
25237;SDS011;13185;50.872;5.306;2024-01-15T04:13:10;11.63;;;6.73;;
25237;SDS011;13185;50.872;5.306;2024-01-15T04:15:36;15.30;;;6.83;;
25237;SDS011;13185;50.872;5.306;2024-01-15T04:18:02;12.77;;;7.00;;
25237;SDS011;13185;50.872;5.306;2024-01-15T04:20:28;11.57;;;6.67;;
25237;SDS011;13185;50.872;5.306;2024-01-15T04:22:53;13.70;;;6.97;;
25237;SDS011;13185;50.872;5.306;2024-01-15T04:25:19;12.07;;;6.97;;
25237;SDS011;13185;50.872;5.306;2024-01-15T04:27:44;10.77;;;6.43;;
25237;SDS011;13185;50.872;5.306;2024-01-15T04:30:10;11.80;;;6.40;;
25237;SDS011;13185;50.872;5.306;2024-01-15T04:32:36;17.00;;;7.90;;
25237;SDS011;13185;50.872;5.306;2024-01-15T04:35:01;15.50;;;7.63;;
25237;SDS011;13185;50.872;5.306;2024-01-15T04:37:27;11.73;;;6.43;;
25237;SDS011;13185;50.872;5.306;2024-01-15T04:39:52;13.23;;;6.50;;
25237;SDS011;13185;50.872;5.306;2024-01-15T04:42:20;12.33;;;6.60;;
25237;SDS011;13185;50.872;5.306;2024-01-15T04:44:46;16.37;;;7.70;;
25237;SDS011;13185;50.872;5.306;2024-01-15T04:47:12;13.53;;;7.50;;
25237;SDS011;13185;50.872;5.306;2024-01-15T04:49:38;13.53;;;7.90;;
25237;SDS011;13185;50.872;5.306;2024-01-15T04:52:03;14.87;;;8.43;;
25237;SDS011;13185;50.872;5.306;2024-01-15T04:54:29;14.80;;;9.00;;
25237;SDS011;13185;50.872;5.306;2024-01-15T04:56:54;15.80;;;8.43;;
25237;SDS011;13185;50.872;5.306;2024-01-15T04:59:20;16.33;;;8.83;;
25237;SDS011;13185;50.872;5.306;2024-01-15T05:01:45;18.60;;;9.63;;
25237;SDS011;13185;50.872;5.306;2024-01-15T05:04:11;22.17;;;10.23;;
25237;SDS011;13185;50.872;5.306;2024-01-15T05:06:36;17.47;;;9.73;;
25237;SDS011;13185;50.872;5.306;2024-01-15T05:09:02;20.70;;;10.50;;
25237;SDS011;13185;50.872;5.306;2024-01-15T05:11:28;20.73;;;10.33;;
25237;SDS011;13185;50.872;5.306;2024-01-15T05:13:54;21.83;;;12.20;;
25237;SDS011;13185;50.872;5.306;2024-01-15T05:16:19;24.30;;;11.97;;
25237;SDS011;13185;50.872;5.306;2024-01-15T05:18:45;23.53;;;12.37;;
25237;SDS011;13185;50.872;5.306;2024-01-15T05:21:10;24.23;;;11.90;;
25237;SDS011;13185;50.872;5.306;2024-01-15T05:23:36;20.60;;;12.37;;
25237;SDS011;13185;50.872;5.306;2024-01-15T05:26:01;22.70;;;11.73;;
25237;SDS011;13185;50.872;5.306;2024-01-15T05:28:27;22.57;;;12.93;;
25237;SDS011;13185;50.872;5.306;2024-01-15T05:30:53;22.63;;;11.23;;
25237;SDS011;13185;50.872;5.306;2024-01-15T05:33:20;28.17;;;13.20;;
25237;SDS011;13185;50.872;5.306;2024-01-15T05:35:47;22.03;;;12.87;;
25237;SDS011;13185;50.872;5.306;2024-01-15T05:38:13;24.63;;;12.70;;
25237;SDS011;13185;50.872;5.306;2024-01-15T05:40:38;23.53;;;12.50;;
25237;SDS011;13185;50.872;5.306;2024-01-15T05:43:04;21.77;;;13.00;;
25237;SDS011;13185;50.872;5.306;2024-01-15T05:45:30;25.33;;;12.53;;
25237;SDS011;13185;50.872;5.306;2024-01-15T05:47:55;24.90;;;12.23;;
25237;SDS011;13185;50.872;5.306;2024-01-15T05:50:22;24.93;;;13.40;;
25237;SDS011;13185;50.872;5.306;2024-01-15T05:52:48;20.80;;;11.77;;
25237;SDS011;13185;50.872;5.306;2024-01-15T05:55:13;22.17;;;12.33;;
25237;SDS011;13185;50.872;5.306;2024-01-15T05:57:39;21.67;;;12.67;;
25237;SDS011;13185;50.872;5.306;2024-01-15T06:00:06;22.33;;;13.20;;
25237;SDS011;13185;50.872;5.306;2024-01-15T06:02:33;22.10;;;12.10;;
25237;SDS011;13185;50.872;5.306;2024-01-15T06:04:59;21.87;;;12.37;;
25237;SDS011;13185;50.872;5.306;2024-01-15T06:07:24;22.10;;;11.93;;
25237;SDS011;13185;50.872;5.306;2024-01-15T06:09:50;23.77;;;12.50;;
25237;SDS011;13185;50.872;5.306;2024-01-15T06:12:15;22.70;;;12.40;;
25237;SDS011;13185;50.872;5.306;2024-01-15T06:14:41;20.60;;;11.43;;
25237;SDS011;13185;50.872;5.306;2024-01-15T06:17:07;21.27;;;12.13;;
25237;SDS011;13185;50.872;5.306;2024-01-15T06:19:33;25.17;;;12.63;;
25237;SDS011;13185;50.872;5.306;2024-01-15T06:21:58;23.47;;;11.83;;
25237;SDS011;13185;50.872;5.306;2024-01-15T06:24:24;22.90;;;11.23;;
25237;SDS011;13185;50.872;5.306;2024-01-15T06:26:49;22.67;;;11.17;;
25237;SDS011;13185;50.872;5.306;2024-01-15T06:29:15;20.83;;;10.90;;
25237;SDS011;13185;50.872;5.306;2024-01-15T06:31:40;18.93;;;10.97;;
25237;SDS011;13185;50.872;5.306;2024-01-15T06:34:06;22.00;;;10.40;;
25237;SDS011;13185;50.872;5.306;2024-01-15T06:36:31;19.73;;;10.80;;
25237;SDS011;13185;50.872;5.306;2024-01-15T06:38:57;18.60;;;10.10;;
25237;SDS011;13185;50.872;5.306;2024-01-15T06:41:22;17.73;;;10.27;;
25237;SDS011;13185;50.872;5.306;2024-01-15T06:43:48;18.07;;;8.97;;
25237;SDS011;13185;50.872;5.306;2024-01-15T06:46:19;14.77;;;8.43;;
25237;SDS011;13185;50.872;5.306;2024-01-15T06:48:48;15.40;;;8.47;;
25237;SDS011;13185;50.872;5.306;2024-01-15T06:51:14;12.77;;;6.97;;
25237;SDS011;13185;50.872;5.306;2024-01-15T06:53:40;14.10;;;7.10;;
25237;SDS011;13185;50.872;5.306;2024-01-15T06:56:06;10.10;;;6.70;;
25237;SDS011;13185;50.872;5.306;2024-01-15T06:58:31;12.23;;;6.13;;
25237;SDS011;13185;50.872;5.306;2024-01-15T07:00:57;12.93;;;6.77;;
25237;SDS011;13185;50.872;5.306;2024-01-15T07:03:23;11.17;;;5.93;;
25237;SDS011;13185;50.872;5.306;2024-01-15T07:05:48;12.87;;;5.20;;
25237;SDS011;13185;50.872;5.306;2024-01-15T07:08:14;10.57;;;5.90;;
25237;SDS011;13185;50.872;5.306;2024-01-15T07:10:40;7.53;;;4.80;;
25237;SDS011;13185;50.872;5.306;2024-01-15T07:13:05;10.57;;;5.13;;
25237;SDS011;13185;50.872;5.306;2024-01-15T07:15:31;8.60;;;4.87;;
25237;SDS011;13185;50.872;5.306;2024-01-15T07:17:56;10.77;;;4.93;;
25237;SDS011;13185;50.872;5.306;2024-01-15T07:20:22;13.07;;;5.57;;
25237;SDS011;13185;50.872;5.306;2024-01-15T07:22:47;8.30;;;4.57;;
25237;SDS011;13185;50.872;5.306;2024-01-15T07:25:13;9.30;;;4.67;;
25237;SDS011;13185;50.872;5.306;2024-01-15T07:27:38;6.10;;;3.70;;
25237;SDS011;13185;50.872;5.306;2024-01-15T07:30:04;11.13;;;4.47;;
25237;SDS011;13185;50.872;5.306;2024-01-15T07:32:31;7.97;;;3.83;;
25237;SDS011;13185;50.872;5.306;2024-01-15T07:34:57;8.60;;;4.17;;
25237;SDS011;13185;50.872;5.306;2024-01-15T07:37:24;10.23;;;3.90;;
25237;SDS011;13185;50.872;5.306;2024-01-15T07:39:50;9.40;;;4.23;;
25237;SDS011;13185;50.872;5.306;2024-01-15T07:42:15;5.93;;;3.37;;
25237;SDS011;13185;50.872;5.306;2024-01-15T07:44:41;10.07;;;3.73;;
25237;SDS011;13185;50.872;5.306;2024-01-15T07:47:06;7.33;;;3.73;;
25237;SDS011;13185;50.872;5.306;2024-01-15T07:49:33;6.37;;;3.93;;
25237;SDS011;13185;50.872;5.306;2024-01-15T07:51:59;8.67;;;3.77;;
25237;SDS011;13185;50.872;5.306;2024-01-15T07:54:25;5.60;;;3.10;;
25237;SDS011;13185;50.872;5.306;2024-01-15T07:56:57;5.73;;;3.17;;
25237;SDS011;13185;50.872;5.306;2024-01-15T08:01:51;8.93;;;2.90;;
25237;SDS011;13185;50.872;5.306;2024-01-15T08:04:16;13.93;;;7.77;;
25237;SDS011;13185;50.872;5.306;2024-01-15T08:06:42;4.80;;;2.43;;
25237;SDS011;13185;50.872;5.306;2024-01-15T08:09:08;7.63;;;2.90;;
25237;SDS011;13185;50.872;5.306;2024-01-15T08:11:34;5.10;;;2.13;;
25237;SDS011;13185;50.872;5.306;2024-01-15T08:13:59;6.40;;;2.33;;
25237;SDS011;13185;50.872;5.306;2024-01-15T08:16:25;4.93;;;2.03;;
25237;SDS011;13185;50.872;5.306;2024-01-15T08:18:53;4.70;;;2.20;;
25237;SDS011;13185;50.872;5.306;2024-01-15T08:21:19;7.60;;;2.47;;
25237;SDS011;13185;50.872;5.306;2024-01-15T08:23:44;5.73;;;2.33;;
25237;SDS011;13185;50.872;5.306;2024-01-15T08:26:10;5.53;;;1.90;;
25237;SDS011;13185;50.872;5.306;2024-01-15T08:28:36;6.03;;;2.57;;
25237;SDS011;13185;50.872;5.306;2024-01-15T08:31:03;3.33;;;1.77;;
25237;SDS011;13185;50.872;5.306;2024-01-15T08:33:28;7.50;;;1.77;;
25237;SDS011;13185;50.872;5.306;2024-01-15T08:35:56;7.50;;;2.43;;
25237;SDS011;13185;50.872;5.306;2024-01-15T08:38:22;7.33;;;1.67;;
25237;SDS011;13185;50.872;5.306;2024-01-15T08:40:48;6.30;;;1.47;;
25237;SDS011;13185;50.872;5.306;2024-01-15T08:43:14;7.03;;;2.00;;
25237;SDS011;13185;50.872;5.306;2024-01-15T08:45:40;3.60;;;2.20;;
25237;SDS011;13185;50.872;5.306;2024-01-15T08:48:05;4.40;;;1.97;;
25237;SDS011;13185;50.872;5.306;2024-01-15T08:50:32;4.53;;;2.10;;
25237;SDS011;13185;50.872;5.306;2024-01-15T08:52:57;5.23;;;2.40;;
25237;SDS011;13185;50.872;5.306;2024-01-15T08:55:23;5.43;;;2.33;;
25237;SDS011;13185;50.872;5.306;2024-01-15T08:57:49;8.07;;;2.37;;
25237;SDS011;13185;50.872;5.306;2024-01-15T09:00:15;6.63;;;2.73;;
25237;SDS011;13185;50.872;5.306;2024-01-15T09:02:41;7.10;;;2.70;;
25237;SDS011;13185;50.872;5.306;2024-01-15T09:05:07;7.77;;;3.23;;
25237;SDS011;13185;50.872;5.306;2024-01-15T09:07:33;9.33;;;2.70;;
25237;SDS011;13185;50.872;5.306;2024-01-15T09:09:58;8.23;;;2.93;;
25237;SDS011;13185;50.872;5.306;2024-01-15T09:12:25;5.30;;;2.57;;
25237;SDS011;13185;50.872;5.306;2024-01-15T09:14:51;7.00;;;3.00;;
25237;SDS011;13185;50.872;5.306;2024-01-15T09:17:17;5.70;;;3.10;;
25237;SDS011;13185;50.872;5.306;2024-01-15T09:19:43;5.97;;;2.90;;
25237;SDS011;13185;50.872;5.306;2024-01-15T09:22:09;7.57;;;3.63;;
25237;SDS011;13185;50.872;5.306;2024-01-15T09:24:35;8.77;;;3.60;;
25237;SDS011;13185;50.872;5.306;2024-01-15T09:27:00;8.10;;;3.50;;
25237;SDS011;13185;50.872;5.306;2024-01-15T09:29:26;9.03;;;4.07;;
25237;SDS011;13185;50.872;5.306;2024-01-15T09:31:51;9.03;;;4.23;;
25237;SDS011;13185;50.872;5.306;2024-01-15T09:34:17;6.63;;;3.33;;
25237;SDS011;13185;50.872;5.306;2024-01-15T09:36:43;9.37;;;4.33;;
25237;SDS011;13185;50.872;5.306;2024-01-15T09:39:09;6.83;;;3.80;;
25237;SDS011;13185;50.872;5.306;2024-01-15T09:41:39;9.90;;;3.67;;
25237;SDS011;13185;50.872;5.306;2024-01-15T09:44:04;7.23;;;3.80;;
25237;SDS011;13185;50.872;5.306;2024-01-15T09:46:31;11.63;;;3.50;;
25237;SDS011;13185;50.872;5.306;2024-01-15T09:48:57;13.47;;;3.80;;
25237;SDS011;13185;50.872;5.306;2024-01-15T09:51:23;8.03;;;3.30;;
25237;SDS011;13185;50.872;5.306;2024-01-15T09:53:49;8.80;;;3.80;;
25237;SDS011;13185;50.872;5.306;2024-01-15T09:56:15;10.37;;;4.13;;
25237;SDS011;13185;50.872;5.306;2024-01-15T09:58:41;8.37;;;3.87;;
25237;SDS011;13185;50.872;5.306;2024-01-15T10:01:08;9.97;;;4.10;;
25237;SDS011;13185;50.872;5.306;2024-01-15T10:03:34;7.50;;;3.77;;
25237;SDS011;13185;50.872;5.306;2024-01-15T10:06:00;6.30;;;3.57;;
25237;SDS011;13185;50.872;5.306;2024-01-15T10:08:27;7.13;;;3.93;;
25237;SDS011;13185;50.872;5.306;2024-01-15T10:10:53;8.83;;;3.40;;
25237;SDS011;13185;50.872;5.306;2024-01-15T10:13:19;6.00;;;2.30;;
25237;SDS011;13185;50.872;5.306;2024-01-15T10:15:46;10.70;;;3.70;;
25237;SDS011;13185;50.872;5.306;2024-01-15T10:18:15;5.67;;;2.80;;
25237;SDS011;13185;50.872;5.306;2024-01-15T10:20:40;6.70;;;2.70;;
25237;SDS011;13185;50.872;5.306;2024-01-15T10:23:06;7.27;;;3.40;;
25237;SDS011;13185;50.872;5.306;2024-01-15T10:25:31;9.23;;;2.27;;
25237;SDS011;13185;50.872;5.306;2024-01-15T10:28:01;6.10;;;1.80;;
25237;SDS011;13185;50.872;5.306;2024-01-15T10:30:28;4.47;;;2.30;;
25237;SDS011;13185;50.872;5.306;2024-01-15T10:32:57;5.47;;;2.03;;
25237;SDS011;13185;50.872;5.306;2024-01-15T10:35:30;7.43;;;1.98;;
25237;SDS011;13185;50.872;5.306;2024-01-15T10:37:57;6.67;;;1.90;;
25237;SDS011;13185;50.872;5.306;2024-01-15T10:40:23;8.13;;;1.73;;
25237;SDS011;13185;50.872;5.306;2024-01-15T10:42:48;10.97;;;2.30;;
25237;SDS011;13185;50.872;5.306;2024-01-15T10:45:14;4.70;;;1.33;;
25237;SDS011;13185;50.872;5.306;2024-01-15T10:47:43;7.57;;;1.83;;
25237;SDS011;13185;50.872;5.306;2024-01-15T10:50:09;6.33;;;1.70;;
25237;SDS011;13185;50.872;5.306;2024-01-15T10:52:39;7.63;;;1.40;;
25237;SDS011;13185;50.872;5.306;2024-01-15T10:55:08;8.03;;;1.43;;
25237;SDS011;13185;50.872;5.306;2024-01-15T10:57:35;5.67;;;1.47;;
25237;SDS011;13185;50.872;5.306;2024-01-15T11:00:02;11.10;;;1.00;;
25237;SDS011;13185;50.872;5.306;2024-01-15T11:02:34;6.50;;;1.40;;
25237;SDS011;13185;50.872;5.306;2024-01-15T11:05:01;6.37;;;1.00;;
25237;SDS011;13185;50.872;5.306;2024-01-15T11:07:27;6.83;;;1.70;;
25237;SDS011;13185;50.872;5.306;2024-01-15T11:09:52;6.97;;;1.50;;
25237;SDS011;13185;50.872;5.306;2024-01-15T11:12:18;3.93;;;1.00;;
25237;SDS011;13185;50.872;5.306;2024-01-15T11:14:48;4.47;;;1.00;;
25237;SDS011;13185;50.872;5.306;2024-01-15T11:17:15;8.27;;;1.40;;
25237;SDS011;13185;50.872;5.306;2024-01-15T11:22:56;3.50;;;1.43;;
25237;SDS011;13185;50.872;5.306;2024-01-15T11:25:01;7.03;;;1.77;;
25237;SDS011;13185;50.872;5.306;2024-01-15T11:28:01;3.57;;;0.90;;
25237;SDS011;13185;50.872;5.306;2024-01-15T11:30:20;4.53;;;1.07;;
25237;SDS011;13185;50.872;5.306;2024-01-15T11:32:50;8.93;;;1.07;;
25237;SDS011;13185;50.872;5.306;2024-01-15T11:35:16;6.87;;;1.47;;
25237;SDS011;13185;50.872;5.306;2024-01-15T11:40:19;5.70;;;0.97;;
25237;SDS011;13185;50.872;5.306;2024-01-15T11:42:57;10.23;;;2.00;;
25237;SDS011;13185;50.872;5.306;2024-01-15T11:45:23;3.13;;;0.90;;
25237;SDS011;13185;50.872;5.306;2024-01-15T11:50:17;5.20;;;0.97;;
25237;SDS011;13185;50.872;5.306;2024-01-15T11:52:44;3.87;;;1.13;;
25237;SDS011;13185;50.872;5.306;2024-01-15T11:55:27;13.67;;;1.70;;
25237;SDS011;13185;50.872;5.306;2024-01-15T11:57:58;6.23;;;1.33;;
25237;SDS011;13185;50.872;5.306;2024-01-15T12:00:26;5.93;;;1.27;;
25237;SDS011;13185;50.872;5.306;2024-01-15T12:02:52;3.73;;;0.90;;
25237;SDS011;13185;50.872;5.306;2024-01-15T12:05:18;4.90;;;1.00;;
25237;SDS011;13185;50.872;5.306;2024-01-15T12:07:46;3.50;;;1.40;;
25237;SDS011;13185;50.872;5.306;2024-01-15T12:10:14;6.53;;;1.80;;
25237;SDS011;13185;50.872;5.306;2024-01-15T12:15:25;9.97;;;1.77;;
25237;SDS011;13185;50.872;5.306;2024-01-15T12:17:54;2.70;;;1.30;;
25237;SDS011;13185;50.872;5.306;2024-01-15T12:20:23;5.47;;;1.40;;
25237;SDS011;13185;50.872;5.306;2024-01-15T12:22:49;5.20;;;1.30;;
25237;SDS011;13185;50.872;5.306;2024-01-15T12:25:14;6.93;;;1.63;;
25237;SDS011;13185;50.872;5.306;2024-01-15T12:27:40;3.93;;;1.83;;
25237;SDS011;13185;50.872;5.306;2024-01-15T12:30:06;6.93;;;1.90;;
25237;SDS011;13185;50.872;5.306;2024-01-15T12:32:32;5.43;;;1.90;;
25237;SDS011;13185;50.872;5.306;2024-01-15T12:35:00;5.30;;;2.03;;
25237;SDS011;13185;50.872;5.306;2024-01-15T12:37:25;4.53;;;1.80;;
25237;SDS011;13185;50.872;5.306;2024-01-15T12:39:51;7.40;;;1.13;;
25237;SDS011;13185;50.872;5.306;2024-01-15T12:42:17;4.13;;;1.40;;
25237;SDS011;13185;50.872;5.306;2024-01-15T12:44:44;3.33;;;1.10;;
25237;SDS011;13185;50.872;5.306;2024-01-15T12:47:10;4.57;;;1.20;;
25237;SDS011;13185;50.872;5.306;2024-01-15T12:49:38;1.80;;;1.07;;
25237;SDS011;13185;50.872;5.306;2024-01-15T12:52:10;3.97;;;1.07;;
25237;SDS011;13185;50.872;5.306;2024-01-15T12:54:35;4.20;;;1.17;;
25237;SDS011;13185;50.872;5.306;2024-01-15T12:57:01;4.53;;;1.40;;
25237;SDS011;13185;50.872;5.306;2024-01-15T12:59:26;3.00;;;1.20;;
25237;SDS011;13185;50.872;5.306;2024-01-15T13:01:52;2.23;;;0.87;;
25237;SDS011;13185;50.872;5.306;2024-01-15T13:04:24;3.90;;;1.00;;
25237;SDS011;13185;50.872;5.306;2024-01-15T13:06:50;4.43;;;0.90;;
25237;SDS011;13185;50.872;5.306;2024-01-15T13:09:19;3.20;;;1.63;;
25237;SDS011;13185;50.872;5.306;2024-01-15T13:11:44;2.60;;;1.10;;
25237;SDS011;13185;50.872;5.306;2024-01-15T13:14:11;3.40;;;1.10;;
25237;SDS011;13185;50.872;5.306;2024-01-15T13:16:36;2.67;;;1.57;;
25237;SDS011;13185;50.872;5.306;2024-01-15T13:19:02;3.33;;;1.37;;
25237;SDS011;13185;50.872;5.306;2024-01-15T13:21:29;3.33;;;1.50;;
25237;SDS011;13185;50.872;5.306;2024-01-15T13:23:55;6.70;;;1.73;;
25237;SDS011;13185;50.872;5.306;2024-01-15T13:26:20;3.30;;;1.00;;
25237;SDS011;13185;50.872;5.306;2024-01-15T13:28:46;4.93;;;1.17;;
25237;SDS011;13185;50.872;5.306;2024-01-15T13:31:12;3.80;;;1.23;;
25237;SDS011;13185;50.872;5.306;2024-01-15T13:33:38;3.77;;;1.23;;
25237;SDS011;13185;50.872;5.306;2024-01-15T13:36:04;4.80;;;1.17;;
25237;SDS011;13185;50.872;5.306;2024-01-15T13:38:33;3.27;;;1.10;;
25237;SDS011;13185;50.872;5.306;2024-01-15T13:41:01;4.23;;;1.10;;
25237;SDS011;13185;50.872;5.306;2024-01-15T13:43:27;3.20;;;0.90;;
25237;SDS011;13185;50.872;5.306;2024-01-15T13:45:53;2.20;;;1.03;;
25237;SDS011;13185;50.872;5.306;2024-01-15T13:48:19;2.40;;;0.60;;
25237;SDS011;13185;50.872;5.306;2024-01-15T13:50:45;1.30;;;0.50;;
25237;SDS011;13185;50.872;5.306;2024-01-15T13:53:11;1.97;;;0.50;;
25237;SDS011;13185;50.872;5.306;2024-01-15T13:55:36;3.90;;;0.90;;
25237;SDS011;13185;50.872;5.306;2024-01-15T13:58:02;0.87;;;0.43;;
25237;SDS011;13185;50.872;5.306;2024-01-15T14:00:31;1.90;;;0.60;;
25237;SDS011;13185;50.872;5.306;2024-01-15T14:02:57;2.93;;;0.63;;
25237;SDS011;13185;50.872;5.306;2024-01-15T14:05:23;3.13;;;0.60;;
25237;SDS011;13185;50.872;5.306;2024-01-15T14:07:48;1.50;;;0.60;;
25237;SDS011;13185;50.872;5.306;2024-01-15T14:10:14;1.30;;;0.37;;
25237;SDS011;13185;50.872;5.306;2024-01-15T14:12:40;0.73;;;0.37;;
25237;SDS011;13185;50.872;5.306;2024-01-15T14:15:06;0.50;;;0.30;;
25237;SDS011;13185;50.872;5.306;2024-01-15T14:17:32;2.47;;;0.47;;
25237;SDS011;13185;50.872;5.306;2024-01-15T14:19:58;4.60;;;1.07;;
25237;SDS011;13185;50.872;5.306;2024-01-15T14:22:24;1.60;;;0.70;;
25237;SDS011;13185;50.872;5.306;2024-01-15T14:24:49;2.83;;;0.50;;
25237;SDS011;13185;50.872;5.306;2024-01-15T14:27:16;2.17;;;0.60;;
25237;SDS011;13185;50.872;5.306;2024-01-15T14:29:42;8.27;;;3.50;;
25237;SDS011;13185;50.872;5.306;2024-01-15T14:32:07;1.37;;;0.90;;
25237;SDS011;13185;50.872;5.306;2024-01-15T14:34:33;1.97;;;1.03;;
25237;SDS011;13185;50.872;5.306;2024-01-15T14:37:01;2.60;;;1.23;;
25237;SDS011;13185;50.872;5.306;2024-01-15T14:39:26;5.37;;;0.93;;
25237;SDS011;13185;50.872;5.306;2024-01-15T14:41:52;2.20;;;1.00;;